This is the latest recevied weather packets stored in our database for station/object KC4MCQ-10. If no packets are shown the sender has not sent any weather packets the latest 10 day(s).
| Time | Temp. | Humidity | Pressure | Rain* | Wind** | Luminosity | Snow |
|---|---|---|---|---|---|---|---|
| 1787478568 | 25.56° C | 88% | 1014.6 hPa | 0 mm | 0.45 m/s, 263° | - | - |
| 1787477968 | 25.56° C | 88% | 1014.5 hPa | 0 mm | 0.45 m/s, 263° | - | - |
| 1787477367 | 25° C | 88% | 1014.6 hPa | 0 mm | 1.34 m/s, 314° | - | - |
| 1787476767 | 25° C | 88% | 1014.5 hPa | 0 mm | 0.89 m/s, 300° | - | - |
| 1787476156 | 25° C | 88% | 1014.6 hPa | 0 mm | 0.89 m/s, 301° | - | - |
| 1787475548 | 25.56° C | 88% | 1014.6 hPa | 0 mm | 0.89 m/s, 256° | - | - |
| 1787474944 | 25.56° C | 88% | 1014.7 hPa | 0 mm | 0.89 m/s, 268° | - | - |
| 1787474329 | 25° C | 88% | 1014.8 hPa | 0 mm | 0.89 m/s, 225° | - | - |
| 1787473719 | 25° C | 88% | 1014.8 hPa | 0 mm | 0.45 m/s, 225° | - | - |
| 1787473112 | 25.56° C | 88% | 1014.9 hPa | 0 mm | 0 m/s | - | - |
| 1787472509 | 25.56° C | 88% | 1014.7 hPa | 0 mm | 0.45 m/s, 224° | - | - |
| 1787471904 | 25.56° C | 88% | 1014.8 hPa | 0 mm | 0.45 m/s, 217° | - | - |
| 1787471291 | 25.56° C | 88% | 1014.9 hPa | 0 mm | 0.89 m/s, 211° | - | - |
| 1787468845 | 25.56° C | 88% | 1015 hPa | 0 mm | 0 m/s | - | - |
| 1787468243 | 25.56° C | 88% | 1015.1 hPa | 0 mm | 1.34 m/s, 240° | - | - |
| 1787467642 | 25.56° C | 87% | 1015 hPa | 0 mm | 0.45 m/s, 247° | - | - |
| 1787467021 | 25.56° C | 87% | 1015 hPa | 0 mm | 0.45 m/s, 211° | - | - |
| 1787466421 | 25.56° C | 87% | 1015.2 hPa | 0 mm | 1.34 m/s, 192° | - | - |
| 1787465820 | 25.56° C | 87% | 1015.3 hPa | 0 mm | 0.89 m/s, 194° | - | - |
| 1787465220 | 25.56° C | 87% | 1015.5 hPa | 0 mm | 1.34 m/s, 189° | - | - |
| 1787464618 | 25.56° C | 87% | 1015.4 hPa | 0 mm | 0.89 m/s, 216° | - | - |
| 1787464017 | 25.56° C | 87% | 1015.5 hPa | 0 mm | 0.45 m/s, 205° | - | - |
| 1787463417 | 26.11° C | 87% | 1015.5 hPa | 0 mm | 0.45 m/s, 207° | - | - |
| 1787462814 | 26.11° C | 87% | 1015.7 hPa | 0 mm | 0.45 m/s, 199° | - | - |
| 1787462214 | 26.11° C | 87% | 1015.9 hPa | 0 mm | 0.89 m/s, 226° | - | - |
* Rain latest 24 hours (hover to see other rain measurements)
** Current wind speed in m/s (hover to see current wind gust speed)